sensor_id;sensor_type;location;lat;lon;timestamp;P1;durP1;ratioP1;P2;durP2;ratioP2
21941;SDS011;11135;54.192;15.670;2023-05-10T00:01:26;4.43;;;2.92;;
21941;SDS011;11135;54.192;15.670;2023-05-10T00:04:35;5.10;;;3.10;;
21941;SDS011;11135;54.192;15.670;2023-05-10T00:07:43;4.00;;;2.70;;
21941;SDS011;11135;54.192;15.670;2023-05-10T00:10:51;5.85;;;3.30;;
21941;SDS011;11135;54.192;15.670;2023-05-10T00:13:56;6.18;;;3.65;;
21941;SDS011;11135;54.192;15.670;2023-05-10T00:17:02;6.50;;;3.20;;
21941;SDS011;11135;54.192;15.670;2023-05-10T00:20:08;5.70;;;3.33;;
21941;SDS011;11135;54.192;15.670;2023-05-10T00:23:17;5.07;;;3.00;;
21941;SDS011;11135;54.192;15.670;2023-05-10T00:26:22;5.00;;;2.97;;
21941;SDS011;11135;54.192;15.670;2023-05-10T00:29:29;5.78;;;3.67;;
21941;SDS011;11135;54.192;15.670;2023-05-10T00:32:35;10.63;;;3.95;;
21941;SDS011;11135;54.192;15.670;2023-05-10T00:35:42;4.30;;;3.20;;
21941;SDS011;11135;54.192;15.670;2023-05-10T00:38:49;4.82;;;3.30;;
21941;SDS011;11135;54.192;15.670;2023-05-10T00:41:55;6.32;;;3.58;;
21941;SDS011;11135;54.192;15.670;2023-05-10T00:45:02;7.10;;;4.28;;
21941;SDS011;11135;54.192;15.670;2023-05-10T00:48:08;6.13;;;3.45;;
21941;SDS011;11135;54.192;15.670;2023-05-10T00:51:15;6.72;;;3.42;;
21941;SDS011;11135;54.192;15.670;2023-05-10T00:54:25;11.13;;;3.65;;
21941;SDS011;11135;54.192;15.670;2023-05-10T00:57:33;5.45;;;3.20;;
21941;SDS011;11135;54.192;15.670;2023-05-10T01:00:40;6.57;;;3.47;;
21941;SDS011;11135;54.192;15.670;2023-05-10T01:03:47;8.50;;;3.67;;
21941;SDS011;11135;54.192;15.670;2023-05-10T01:06:53;5.43;;;3.00;;
21941;SDS011;11135;54.192;15.670;2023-05-10T01:10:01;19.75;;;4.65;;
21941;SDS011;11135;54.192;15.670;2023-05-10T01:13:07;8.80;;;3.53;;
21941;SDS011;11135;54.192;15.670;2023-05-10T01:16:12;6.80;;;3.17;;
21941;SDS011;11135;54.192;15.670;2023-05-10T01:19:18;7.35;;;3.55;;
21941;SDS011;11135;54.192;15.670;2023-05-10T01:22:39;6.22;;;3.33;;
21941;SDS011;11135;54.192;15.670;2023-05-10T01:32:40;5.93;;;3.80;;
21941;SDS011;11135;54.192;15.670;2023-05-10T01:35:50;6.00;;;3.10;;
21941;SDS011;11135;54.192;15.670;2023-05-10T01:38:58;6.05;;;3.35;;
21941;SDS011;11135;54.192;15.670;2023-05-10T01:42:05;4.55;;;3.08;;
21941;SDS011;11135;54.192;15.670;2023-05-10T01:45:14;6.60;;;3.33;;
21941;SDS011;11135;54.192;15.670;2023-05-10T01:48:25;7.30;;;3.33;;
21941;SDS011;11135;54.192;15.670;2023-05-10T01:51:36;5.50;;;3.22;;
21941;SDS011;11135;54.192;15.670;2023-05-10T01:54:44;6.90;;;3.50;;
21941;SDS011;11135;54.192;15.670;2023-05-10T01:57:56;6.38;;;3.47;;
21941;SDS011;11135;54.192;15.670;2023-05-10T02:01:03;5.95;;;3.30;;
21941;SDS011;11135;54.192;15.670;2023-05-10T02:04:16;5.78;;;3.17;;
21941;SDS011;11135;54.192;15.670;2023-05-10T02:07:22;6.85;;;3.28;;
21941;SDS011;11135;54.192;15.670;2023-05-10T02:10:30;6.55;;;3.53;;
21941;SDS011;11135;54.192;15.670;2023-05-10T02:13:35;7.13;;;3.08;;
21941;SDS011;11135;54.192;15.670;2023-05-10T02:16:42;6.80;;;3.72;;
21941;SDS011;11135;54.192;15.670;2023-05-10T02:19:50;7.10;;;3.42;;
21941;SDS011;11135;54.192;15.670;2023-05-10T02:22:56;5.85;;;3.63;;
21941;SDS011;11135;54.192;15.670;2023-05-10T02:26:02;7.47;;;3.22;;
21941;SDS011;11135;54.192;15.670;2023-05-10T02:29:09;6.55;;;3.42;;
21941;SDS011;11135;54.192;15.670;2023-05-10T02:32:14;5.60;;;3.20;;
21941;SDS011;11135;54.192;15.670;2023-05-10T02:35:23;6.65;;;3.72;;
21941;SDS011;11135;54.192;15.670;2023-05-10T02:38:28;6.13;;;3.78;;
21941;SDS011;11135;54.192;15.670;2023-05-10T02:41:35;5.80;;;4.00;;
21941;SDS011;11135;54.192;15.670;2023-05-10T02:44:40;7.05;;;3.30;;
21941;SDS011;11135;54.192;15.670;2023-05-10T02:47:48;5.82;;;3.10;;
21941;SDS011;11135;54.192;15.670;2023-05-10T02:50:56;7.70;;;3.60;;
21941;SDS011;11135;54.192;15.670;2023-05-10T02:54:06;5.30;;;3.10;;
21941;SDS011;11135;54.192;15.670;2023-05-10T02:57:14;6.43;;;3.90;;
21941;SDS011;11135;54.192;15.670;2023-05-10T03:00:21;5.93;;;3.33;;
21941;SDS011;11135;54.192;15.670;2023-05-10T03:03:26;5.47;;;3.22;;
21941;SDS011;11135;54.192;15.670;2023-05-10T03:06:35;6.25;;;3.47;;
21941;SDS011;11135;54.192;15.670;2023-05-10T03:09:40;7.85;;;3.33;;
21941;SDS011;11135;54.192;15.670;2023-05-10T03:12:52;7.40;;;3.47;;
21941;SDS011;11135;54.192;15.670;2023-05-10T03:15:59;5.40;;;3.05;;
21941;SDS011;11135;54.192;15.670;2023-05-10T03:19:10;6.43;;;4.28;;
21941;SDS011;11135;54.192;15.670;2023-05-10T03:22:21;5.32;;;3.40;;
21941;SDS011;11135;54.192;15.670;2023-05-10T03:25:28;5.80;;;3.35;;
21941;SDS011;11135;54.192;15.670;2023-05-10T03:28:36;6.65;;;3.75;;
21941;SDS011;11135;54.192;15.670;2023-05-10T03:31:41;9.52;;;3.80;;
21941;SDS011;11135;54.192;15.670;2023-05-10T03:34:46;5.43;;;3.40;;
21941;SDS011;11135;54.192;15.670;2023-05-10T03:37:55;6.63;;;3.20;;
21941;SDS011;11135;54.192;15.670;2023-05-10T03:41:00;5.40;;;3.03;;
21941;SDS011;11135;54.192;15.670;2023-05-10T03:44:05;6.05;;;3.67;;
21941;SDS011;11135;54.192;15.670;2023-05-10T03:47:10;6.18;;;3.50;;
21941;SDS011;11135;54.192;15.670;2023-05-10T03:50:16;6.38;;;3.38;;
21941;SDS011;11135;54.192;15.670;2023-05-10T03:53:25;6.10;;;3.38;;
21941;SDS011;11135;54.192;15.670;2023-05-10T03:56:31;7.32;;;4.40;;
21941;SDS011;11135;54.192;15.670;2023-05-10T03:59:36;6.45;;;3.55;;
21941;SDS011;11135;54.192;15.670;2023-05-10T04:02:41;4.93;;;3.28;;
21941;SDS011;11135;54.192;15.670;2023-05-10T04:05:47;5.25;;;3.38;;
21941;SDS011;11135;54.192;15.670;2023-05-10T04:08:55;6.22;;;3.20;;
21941;SDS011;11135;54.192;15.670;2023-05-10T04:12:01;7.50;;;3.67;;
21941;SDS011;11135;54.192;15.670;2023-05-10T04:15:10;6.50;;;3.83;;
21941;SDS011;11135;54.192;15.670;2023-05-10T04:18:15;7.00;;;3.28;;
21941;SDS011;11135;54.192;15.670;2023-05-10T04:21:20;8.18;;;3.70;;
21941;SDS011;11135;54.192;15.670;2023-05-10T04:24:28;7.22;;;4.00;;
21941;SDS011;11135;54.192;15.670;2023-05-10T04:27:33;9.32;;;4.53;;
21941;SDS011;11135;54.192;15.670;2023-05-10T04:30:39;10.88;;;3.80;;
21941;SDS011;11135;54.192;15.670;2023-05-10T04:33:49;8.45;;;3.88;;
21941;SDS011;11135;54.192;15.670;2023-05-10T04:36:54;5.68;;;3.70;;
21941;SDS011;11135;54.192;15.670;2023-05-10T04:40:04;8.10;;;4.22;;
21941;SDS011;11135;54.192;15.670;2023-05-10T04:43:09;8.45;;;4.07;;
21941;SDS011;11135;54.192;15.670;2023-05-10T04:46:15;5.90;;;3.55;;
21941;SDS011;11135;54.192;15.670;2023-05-10T04:49:20;5.07;;;3.40;;
21941;SDS011;11135;54.192;15.670;2023-05-10T04:52:28;5.53;;;3.90;;
21941;SDS011;11135;54.192;15.670;2023-05-10T04:55:36;6.05;;;3.65;;
21941;SDS011;11135;54.192;15.670;2023-05-10T04:58:41;8.65;;;4.15;;
21941;SDS011;11135;54.192;15.670;2023-05-10T05:01:46;7.30;;;3.90;;
21941;SDS011;11135;54.192;15.670;2023-05-10T05:04:52;7.00;;;4.45;;
21941;SDS011;11135;54.192;15.670;2023-05-10T05:08:00;9.40;;;3.72;;
21941;SDS011;11135;54.192;15.670;2023-05-10T05:11:09;5.70;;;3.60;;
21941;SDS011;11135;54.192;15.670;2023-05-10T05:14:23;6.75;;;3.83;;
21941;SDS011;11135;54.192;15.670;2023-05-10T05:17:29;7.15;;;3.75;;
21941;SDS011;11135;54.192;15.670;2023-05-10T05:20:34;9.73;;;4.43;;
21941;SDS011;11135;54.192;15.670;2023-05-10T05:23:40;11.30;;;3.63;;
21941;SDS011;11135;54.192;15.670;2023-05-10T05:26:50;6.28;;;3.55;;
21941;SDS011;11135;54.192;15.670;2023-05-10T05:29:56;7.47;;;4.88;;
21941;SDS011;11135;54.192;15.670;2023-05-10T05:33:05;8.40;;;3.92;;
21941;SDS011;11135;54.192;15.670;2023-05-10T05:36:11;6.75;;;4.35;;
21941;SDS011;11135;54.192;15.670;2023-05-10T05:39:16;6.10;;;3.70;;
21941;SDS011;11135;54.192;15.670;2023-05-10T05:42:24;6.65;;;3.97;;
21941;SDS011;11135;54.192;15.670;2023-05-10T05:45:30;8.73;;;4.13;;
21941;SDS011;11135;54.192;15.670;2023-05-10T05:48:38;6.97;;;4.65;;
21941;SDS011;11135;54.192;15.670;2023-05-10T05:51:44;7.40;;;3.92;;
21941;SDS011;11135;54.192;15.670;2023-05-10T05:54:51;6.38;;;4.38;;
21941;SDS011;11135;54.192;15.670;2023-05-10T05:58:07;7.25;;;4.00;;
21941;SDS011;11135;54.192;15.670;2023-05-10T06:01:13;8.25;;;4.18;;
21941;SDS011;11135;54.192;15.670;2023-05-10T06:04:18;7.93;;;3.95;;
21941;SDS011;11135;54.192;15.670;2023-05-10T06:07:26;7.22;;;3.97;;
21941;SDS011;11135;54.192;15.670;2023-05-10T06:10:31;6.95;;;4.20;;
21941;SDS011;11135;54.192;15.670;2023-05-10T06:13:42;6.53;;;3.80;;
21941;SDS011;11135;54.192;15.670;2023-05-10T06:16:47;10.10;;;4.07;;
21941;SDS011;11135;54.192;15.670;2023-05-10T06:19:54;9.30;;;3.70;;
21941;SDS011;11135;54.192;15.670;2023-05-10T06:23:02;5.90;;;3.85;;
21941;SDS011;11135;54.192;15.670;2023-05-10T06:26:07;8.13;;;4.38;;
21941;SDS011;11135;54.192;15.670;2023-05-10T06:29:16;7.10;;;3.50;;
21941;SDS011;11135;54.192;15.670;2023-05-10T06:32:25;5.65;;;3.92;;
21941;SDS011;11135;54.192;15.670;2023-05-10T06:35:31;7.18;;;4.15;;
21941;SDS011;11135;54.192;15.670;2023-05-10T06:38:38;6.65;;;3.95;;
21941;SDS011;11135;54.192;15.670;2023-05-10T06:41:45;5.97;;;3.90;;
21941;SDS011;11135;54.192;15.670;2023-05-10T06:44:53;6.88;;;4.43;;
21941;SDS011;11135;54.192;15.670;2023-05-10T06:47:58;8.18;;;3.65;;
21941;SDS011;11135;54.192;15.670;2023-05-10T06:51:04;6.18;;;3.88;;
21941;SDS011;11135;54.192;15.670;2023-05-10T06:54:09;5.80;;;3.85;;
21941;SDS011;11135;54.192;15.670;2023-05-10T06:57:15;6.25;;;4.15;;
21941;SDS011;11135;54.192;15.670;2023-05-10T07:00:37;6.78;;;4.10;;
21941;SDS011;11135;54.192;15.670;2023-05-10T07:03:46;7.35;;;4.03;;
21941;SDS011;11135;54.192;15.670;2023-05-10T07:06:53;5.85;;;3.50;;
21941;SDS011;11135;54.192;15.670;2023-05-10T07:10:01;6.45;;;3.88;;
21941;SDS011;11135;54.192;15.670;2023-05-10T07:13:07;9.20;;;4.30;;
21941;SDS011;11135;54.192;15.670;2023-05-10T07:16:15;7.15;;;3.90;;
21941;SDS011;11135;54.192;15.670;2023-05-10T07:19:21;8.82;;;4.30;;
21941;SDS011;11135;54.192;15.670;2023-05-10T07:22:26;7.80;;;3.97;;
21941;SDS011;11135;54.192;15.670;2023-05-10T07:25:32;7.70;;;4.05;;
21941;SDS011;11135;54.192;15.670;2023-05-10T07:28:37;6.43;;;3.30;;
21941;SDS011;11135;54.192;15.670;2023-05-10T07:31:45;7.53;;;3.85;;
21941;SDS011;11135;54.192;15.670;2023-05-10T07:35:05;5.72;;;3.72;;
21941;SDS011;11135;54.192;15.670;2023-05-10T07:38:10;5.85;;;3.53;;
21941;SDS011;11135;54.192;15.670;2023-05-10T07:41:18;7.40;;;4.35;;
21941;SDS011;11135;54.192;15.670;2023-05-10T07:44:26;8.60;;;3.05;;
21941;SDS011;11135;54.192;15.670;2023-05-10T07:47:41;5.45;;;3.63;;
21941;SDS011;11135;54.192;15.670;2023-05-10T07:50:51;6.07;;;3.63;;
21941;SDS011;11135;54.192;15.670;2023-05-10T07:54:06;4.57;;;3.28;;
21941;SDS011;11135;54.192;15.670;2023-05-10T07:57:12;9.10;;;3.63;;
21941;SDS011;11135;54.192;15.670;2023-05-10T08:00:27;7.95;;;4.07;;
21941;SDS011;11135;54.192;15.670;2023-05-10T08:03:42;7.63;;;4.20;;
21941;SDS011;11135;54.192;15.670;2023-05-10T08:06:57;5.85;;;3.90;;
21941;SDS011;11135;54.192;15.670;2023-05-10T08:10:04;6.35;;;3.90;;
21941;SDS011;11135;54.192;15.670;2023-05-10T08:13:11;8.43;;;3.67;;
21941;SDS011;11135;54.192;15.670;2023-05-10T08:16:17;6.78;;;3.55;;
21941;SDS011;11135;54.192;15.670;2023-05-10T08:19:27;7.20;;;3.58;;
21941;SDS011;11135;54.192;15.670;2023-05-10T08:22:49;5.88;;;3.25;;
21941;SDS011;11135;54.192;15.670;2023-05-10T08:25:56;5.50;;;3.28;;
21941;SDS011;11135;54.192;15.670;2023-05-10T08:29:09;7.18;;;3.50;;
21941;SDS011;11135;54.192;15.670;2023-05-10T08:32:14;8.70;;;3.28;;
21941;SDS011;11135;54.192;15.670;2023-05-10T08:35:28;6.53;;;3.58;;
21941;SDS011;11135;54.192;15.670;2023-05-10T08:38:36;8.68;;;6.72;;
21941;SDS011;11135;54.192;15.670;2023-05-10T08:42:01;6.07;;;3.80;;
21941;SDS011;11135;54.192;15.670;2023-05-10T08:45:10;9.13;;;3.38;;
21941;SDS011;11135;54.192;15.670;2023-05-10T08:48:29;7.68;;;3.47;;
21941;SDS011;11135;54.192;15.670;2023-05-10T08:51:54;6.07;;;3.45;;
21941;SDS011;11135;54.192;15.670;2023-05-10T08:55:11;5.65;;;3.30;;
21941;SDS011;11135;54.192;15.670;2023-05-10T08:58:28;8.65;;;2.95;;
21941;SDS011;11135;54.192;15.670;2023-05-10T09:01:50;6.47;;;2.92;;
21941;SDS011;11135;54.192;15.670;2023-05-10T09:04:57;8.13;;;3.90;;
21941;SDS011;11135;54.192;15.670;2023-05-10T09:08:26;6.10;;;2.97;;
21941;SDS011;11135;54.192;15.670;2023-05-10T09:11:38;6.10;;;3.20;;
21941;SDS011;11135;54.192;15.670;2023-05-10T09:14:46;6.65;;;2.90;;
21941;SDS011;11135;54.192;15.670;2023-05-10T09:17:52;4.78;;;3.33;;
21941;SDS011;11135;54.192;15.670;2023-05-10T09:21:02;6.00;;;3.15;;
21941;SDS011;11135;54.192;15.670;2023-05-10T09:24:13;4.95;;;3.15;;
21941;SDS011;11135;54.192;15.670;2023-05-10T09:27:26;7.30;;;3.00;;
21941;SDS011;11135;54.192;15.670;2023-05-10T09:30:40;5.40;;;2.72;;
21941;SDS011;11135;54.192;15.670;2023-05-10T09:33:48;5.22;;;3.25;;
21941;SDS011;11135;54.192;15.670;2023-05-10T09:37:17;5.75;;;2.58;;
21941;SDS011;11135;54.192;15.670;2023-05-10T09:40:26;5.40;;;2.47;;
21941;SDS011;11135;54.192;15.670;2023-05-10T09:46:41;5.05;;;2.70;;
21941;SDS011;11135;54.192;15.670;2023-05-10T09:49:50;4.78;;;2.30;;
21941;SDS011;11135;54.192;15.670;2023-05-10T09:53:00;4.22;;;2.50;;
21941;SDS011;11135;54.192;15.670;2023-05-10T09:56:08;3.53;;;2.35;;
21941;SDS011;11135;54.192;15.670;2023-05-10T09:59:15;5.05;;;2.90;;
21941;SDS011;11135;54.192;15.670;2023-05-10T10:02:28;6.65;;;2.90;;
21941;SDS011;11135;54.192;15.670;2023-05-10T10:05:36;6.22;;;2.30;;
21941;SDS011;11135;54.192;15.670;2023-05-10T10:08:43;4.88;;;2.00;;
21941;SDS011;11135;54.192;15.670;2023-05-10T10:11:55;6.03;;;2.22;;
21941;SDS011;11135;54.192;15.670;2023-05-10T10:15:01;3.70;;;1.92;;
21941;SDS011;11135;54.192;15.670;2023-05-10T10:18:07;7.72;;;2.45;;
21941;SDS011;11135;54.192;15.670;2023-05-10T10:21:13;3.88;;;2.08;;
21941;SDS011;11135;54.192;15.670;2023-05-10T10:24:21;4.60;;;2.22;;
21941;SDS011;11135;54.192;15.670;2023-05-10T10:27:36;2.88;;;2.20;;
21941;SDS011;11135;54.192;15.670;2023-05-10T10:30:45;4.90;;;3.67;;
21941;SDS011;11135;54.192;15.670;2023-05-10T10:33:56;4.68;;;2.80;;
21941;SDS011;11135;54.192;15.670;2023-05-10T10:37:05;8.70;;;3.42;;
21941;SDS011;11135;54.192;15.670;2023-05-10T10:40:22;5.95;;;2.45;;
21941;SDS011;11135;54.192;15.670;2023-05-10T10:43:31;4.95;;;2.47;;
21941;SDS011;11135;54.192;15.670;2023-05-10T10:46:46;4.43;;;2.53;;
21941;SDS011;11135;54.192;15.670;2023-05-10T10:50:07;3.72;;;2.40;;
21941;SDS011;11135;54.192;15.670;2023-05-10T10:53:30;5.72;;;2.85;;
21941;SDS011;11135;54.192;15.670;2023-05-10T10:56:36;5.18;;;2.55;;
21941;SDS011;11135;54.192;15.670;2023-05-10T10:59:44;3.60;;;2.55;;
21941;SDS011;11135;54.192;15.670;2023-05-10T11:02:50;5.72;;;2.38;;
21941;SDS011;11135;54.192;15.670;2023-05-10T11:05:57;3.85;;;2.50;;
21941;SDS011;11135;54.192;15.670;2023-05-10T11:09:04;7.03;;;2.78;;
21941;SDS011;11135;54.192;15.670;2023-05-10T11:12:13;4.63;;;2.65;;
21941;SDS011;11135;54.192;15.670;2023-05-10T11:15:20;6.72;;;2.78;;
21941;SDS011;11135;54.192;15.670;2023-05-10T11:18:33;5.47;;;2.92;;
21941;SDS011;11135;54.192;15.670;2023-05-10T11:21:44;6.72;;;2.47;;
21941;SDS011;11135;54.192;15.670;2023-05-10T11:24:56;3.42;;;2.72;;
21941;SDS011;11135;54.192;15.670;2023-05-10T11:28:02;5.00;;;2.70;;
21941;SDS011;11135;54.192;15.670;2023-05-10T11:31:12;6.93;;;2.75;;
21941;SDS011;11135;54.192;15.670;2023-05-10T11:34:24;3.90;;;2.60;;
21941;SDS011;11135;54.192;15.670;2023-05-10T11:37:31;5.70;;;2.45;;
21941;SDS011;11135;54.192;15.670;2023-05-10T11:40:36;6.65;;;2.55;;
21941;SDS011;11135;54.192;15.670;2023-05-10T11:43:42;4.72;;;2.53;;
21941;SDS011;11135;54.192;15.670;2023-05-10T11:46:54;5.55;;;2.53;;
21941;SDS011;11135;54.192;15.670;2023-05-10T11:50:01;6.10;;;2.88;;
21941;SDS011;11135;54.192;15.670;2023-05-10T11:53:07;5.80;;;2.58;;
21941;SDS011;11135;54.192;15.670;2023-05-10T11:56:13;7.00;;;2.58;;
21941;SDS011;11135;54.192;15.670;2023-05-10T11:59:20;5.78;;;2.35;;
21941;SDS011;11135;54.192;15.670;2023-05-10T12:02:28;4.65;;;2.40;;
21941;SDS011;11135;54.192;15.670;2023-05-10T12:05:34;4.72;;;2.75;;
21941;SDS011;11135;54.192;15.670;2023-05-10T12:08:44;3.53;;;2.47;;
21941;SDS011;11135;54.192;15.670;2023-05-10T12:11:49;8.05;;;3.42;;
21941;SDS011;11135;54.192;15.670;2023-05-10T12:15:05;5.45;;;2.88;;
21941;SDS011;11135;54.192;15.670;2023-05-10T12:18:22;4.18;;;2.42;;
21941;SDS011;11135;54.192;15.670;2023-05-10T12:21:29;5.07;;;2.30;;
21941;SDS011;11135;54.192;15.670;2023-05-10T12:24:37;4.50;;;2.40;;
21941;SDS011;11135;54.192;15.670;2023-05-10T12:27:48;5.20;;;2.80;;
21941;SDS011;11135;54.192;15.670;2023-05-10T12:31:01;5.57;;;2.67;;
21941;SDS011;11135;54.192;15.670;2023-05-10T12:34:13;4.57;;;2.30;;
21941;SDS011;11135;54.192;15.670;2023-05-10T12:37:27;3.78;;;2.50;;
21941;SDS011;11135;54.192;15.670;2023-05-10T12:40:45;6.22;;;2.40;;
21941;SDS011;11135;54.192;15.670;2023-05-10T12:43:55;5.97;;;2.80;;
21941;SDS011;11135;54.192;15.670;2023-05-10T12:47:00;4.68;;;2.60;;
21941;SDS011;11135;54.192;15.670;2023-05-10T12:50:09;5.03;;;3.30;;
21941;SDS011;11135;54.192;15.670;2023-05-10T12:53:19;6.55;;;2.25;;
21941;SDS011;11135;54.192;15.670;2023-05-10T12:56:24;3.63;;;2.42;;
21941;SDS011;11135;54.192;15.670;2023-05-10T12:59:30;3.58;;;2.42;;
21941;SDS011;11135;54.192;15.670;2023-05-10T13:02:38;8.10;;;2.88;;
21941;SDS011;11135;54.192;15.670;2023-05-10T13:05:48;3.53;;;2.47;;
21941;SDS011;11135;54.192;15.670;2023-05-10T13:08:53;4.53;;;2.42;;
21941;SDS011;11135;54.192;15.670;2023-05-10T13:11:59;4.82;;;2.70;;
21941;SDS011;11135;54.192;15.670;2023-05-10T13:15:06;5.30;;;2.50;;
21941;SDS011;11135;54.192;15.670;2023-05-10T13:18:14;4.97;;;2.53;;
21941;SDS011;11135;54.192;15.670;2023-05-10T13:21:22;4.60;;;2.70;;
21941;SDS011;11135;54.192;15.670;2023-05-10T13:24:29;3.85;;;2.60;;
21941;SDS011;11135;54.192;15.670;2023-05-10T13:27:38;4.55;;;2.60;;
21941;SDS011;11135;54.192;15.670;2023-05-10T13:30:45;6.88;;;2.95;;
21941;SDS011;11135;54.192;15.670;2023-05-10T13:33:51;4.88;;;2.50;;
21941;SDS011;11135;54.192;15.670;2023-05-10T13:37:01;5.03;;;2.50;;
21941;SDS011;11135;54.192;15.670;2023-05-10T13:40:07;4.70;;;2.60;;
21941;SDS011;11135;54.192;15.670;2023-05-10T13:43:15;4.60;;;2.60;;
21941;SDS011;11135;54.192;15.670;2023-05-10T13:46:20;3.70;;;2.30;;
21941;SDS011;11135;54.192;15.670;2023-05-10T13:49:26;4.43;;;2.60;;
21941;SDS011;11135;54.192;15.670;2023-05-10T13:52:34;5.82;;;2.67;;
21941;SDS011;11135;54.192;15.670;2023-05-10T13:55:40;5.35;;;2.45;;
21941;SDS011;11135;54.192;15.670;2023-05-10T13:58:46;6.47;;;2.90;;
21941;SDS011;11135;54.192;15.670;2023-05-10T14:01:56;6.10;;;2.90;;
21941;SDS011;11135;54.192;15.670;2023-05-10T14:05:01;6.47;;;2.90;;
21941;SDS011;11135;54.192;15.670;2023-05-10T14:08:09;3.97;;;2.50;;
21941;SDS011;11135;54.192;15.670;2023-05-10T14:11:16;6.30;;;2.78;;
21941;SDS011;11135;54.192;15.670;2023-05-10T14:14:25;6.20;;;2.60;;
21941;SDS011;11135;54.192;15.670;2023-05-10T14:17:31;7.03;;;2.55;;
21941;SDS011;11135;54.192;15.670;2023-05-10T14:20:37;5.65;;;2.60;;
21941;SDS011;11135;54.192;15.670;2023-05-10T14:23:49;4.35;;;2.58;;
21941;SDS011;11135;54.192;15.670;2023-05-10T14:26:54;3.58;;;2.72;;
21941;SDS011;11135;54.192;15.670;2023-05-10T14:30:00;6.35;;;2.72;;
21941;SDS011;11135;54.192;15.670;2023-05-10T14:33:10;7.32;;;2.90;;
21941;SDS011;11135;54.192;15.670;2023-05-10T14:36:15;4.47;;;2.65;;
21941;SDS011;11135;54.192;15.670;2023-05-10T14:39:25;7.03;;;2.50;;
21941;SDS011;11135;54.192;15.670;2023-05-10T14:42:31;4.43;;;2.42;;
21941;SDS011;11135;54.192;15.670;2023-05-10T14:45:38;4.57;;;2.83;;
21941;SDS011;11135;54.192;15.670;2023-05-10T14:48:44;5.13;;;3.50;;
21941;SDS011;11135;54.192;15.670;2023-05-10T14:51:54;3.80;;;2.47;;
21941;SDS011;11135;54.192;15.670;2023-05-10T14:55:03;7.20;;;3.13;;
21941;SDS011;11135;54.192;15.670;2023-05-10T14:58:10;5.10;;;2.85;;
21941;SDS011;11135;54.192;15.670;2023-05-10T15:01:15;4.60;;;2.90;;
21941;SDS011;11135;54.192;15.670;2023-05-10T15:04:22;5.65;;;2.92;;
21941;SDS011;11135;54.192;15.670;2023-05-10T15:07:29;4.85;;;2.92;;
21941;SDS011;11135;54.192;15.670;2023-05-10T15:10:42;4.90;;;2.78;;
21941;SDS011;11135;54.192;15.670;2023-05-10T15:13:49;4.47;;;3.10;;
21941;SDS011;11135;54.192;15.670;2023-05-10T15:16:55;7.13;;;2.60;;
21941;SDS011;11135;54.192;15.670;2023-05-10T15:20:00;6.15;;;3.67;;
21941;SDS011;11135;54.192;15.670;2023-05-10T15:23:07;5.63;;;3.00;;
21941;SDS011;11135;54.192;15.670;2023-05-10T15:26:20;4.63;;;2.87;;
21941;SDS011;11135;54.192;15.670;2023-05-10T15:29:26;5.18;;;3.10;;
21941;SDS011;11135;54.192;15.670;2023-05-10T15:32:34;5.28;;;2.70;;
21941;SDS011;11135;54.192;15.670;2023-05-10T15:35:43;4.35;;;3.05;;
21941;SDS011;11135;54.192;15.670;2023-05-10T15:38:49;6.43;;;2.70;;
21941;SDS011;11135;54.192;15.670;2023-05-10T15:41:59;6.72;;;2.85;;
21941;SDS011;11135;54.192;15.670;2023-05-10T15:45:11;5.05;;;2.78;;
21941;SDS011;11135;54.192;15.670;2023-05-10T15:48:20;3.92;;;2.78;;
21941;SDS011;11135;54.192;15.670;2023-05-10T15:51:25;4.30;;;2.67;;
21941;SDS011;11135;54.192;15.670;2023-05-10T15:54:38;5.72;;;2.70;;
21941;SDS011;11135;54.192;15.670;2023-05-10T15:57:46;5.22;;;2.65;;
21941;SDS011;11135;54.192;15.670;2023-05-10T16:00:53;4.30;;;2.53;;
21941;SDS011;11135;54.192;15.670;2023-05-10T16:03:58;5.43;;;2.55;;
21941;SDS011;11135;54.192;15.670;2023-05-10T16:07:04;3.97;;;2.78;;
21941;SDS011;11135;54.192;15.670;2023-05-10T16:10:10;4.70;;;2.90;;
21941;SDS011;11135;54.192;15.670;2023-05-10T16:13:18;4.47;;;2.63;;
21941;SDS011;11135;54.192;15.670;2023-05-10T16:16:27;6.22;;;2.63;;
21941;SDS011;11135;54.192;15.670;2023-05-10T16:19:32;5.13;;;2.90;;
21941;SDS011;11135;54.192;15.670;2023-05-10T16:22:39;5.88;;;2.20;;
21941;SDS011;11135;54.192;15.670;2023-05-10T16:25:45;3.67;;;2.60;;
21941;SDS011;11135;54.192;15.670;2023-05-10T16:28:53;8.13;;;2.83;;
21941;SDS011;11135;54.192;15.670;2023-05-10T16:32:05;4.97;;;3.05;;
21941;SDS011;11135;54.192;15.670;2023-05-10T16:35:12;4.43;;;2.95;;
21941;SDS011;11135;54.192;15.670;2023-05-10T16:38:18;5.78;;;2.70;;
21941;SDS011;11135;54.192;15.670;2023-05-10T16:41:24;4.65;;;2.95;;
21941;SDS011;11135;54.192;15.670;2023-05-10T16:44:39;7.82;;;3.08;;
21941;SDS011;11135;54.192;15.670;2023-05-10T16:47:44;3.67;;;2.80;;
21941;SDS011;11135;54.192;15.670;2023-05-10T16:50:51;5.75;;;2.85;;
21941;SDS011;11135;54.192;15.670;2023-05-10T16:53:56;8.90;;;3.00;;
21941;SDS011;11135;54.192;15.670;2023-05-10T16:57:05;6.75;;;3.03;;
21941;SDS011;11135;54.192;15.670;2023-05-10T17:00:16;9.20;;;3.30;;
21941;SDS011;11135;54.192;15.670;2023-05-10T17:03:22;7.88;;;2.90;;
21941;SDS011;11135;54.192;15.670;2023-05-10T17:06:30;6.07;;;3.13;;
21941;SDS011;11135;54.192;15.670;2023-05-10T17:09:42;7.30;;;3.28;;
21941;SDS011;11135;54.192;15.670;2023-05-10T17:12:48;6.38;;;3.10;;
21941;SDS011;11135;54.192;15.670;2023-05-10T17:15:59;4.63;;;2.63;;
21941;SDS011;11135;54.192;15.670;2023-05-10T17:22:13;6.35;;;2.97;;
21941;SDS011;11135;54.192;15.670;2023-05-10T17:25:19;7.78;;;3.13;;
21941;SDS011;11135;54.192;15.670;2023-05-10T17:28:34;6.80;;;2.95;;
21941;SDS011;11135;54.192;15.670;2023-05-10T17:31:42;6.05;;;3.53;;
21941;SDS011;11135;54.192;15.670;2023-05-10T17:35:04;7.45;;;3.60;;
21941;SDS011;11135;54.192;15.670;2023-05-10T17:38:10;8.65;;;4.03;;
21941;SDS011;11135;54.192;15.670;2023-05-10T17:41:15;7.22;;;2.80;;
21941;SDS011;11135;54.192;15.670;2023-05-10T17:44:21;7.25;;;2.90;;
21941;SDS011;11135;54.192;15.670;2023-05-10T17:47:30;6.07;;;3.13;;
21941;SDS011;11135;54.192;15.670;2023-05-10T17:50:36;4.60;;;3.05;;
21941;SDS011;11135;54.192;15.670;2023-05-10T17:53:42;4.95;;;2.95;;
21941;SDS011;11135;54.192;15.670;2023-05-10T17:56:51;5.30;;;2.63;;
21941;SDS011;11135;54.192;15.670;2023-05-10T17:59:57;5.47;;;3.15;;
21941;SDS011;11135;54.192;15.670;2023-05-10T18:03:11;4.80;;;3.00;;
21941;SDS011;11135;54.192;15.670;2023-05-10T18:06:17;7.20;;;3.55;;
21941;SDS011;11135;54.192;15.670;2023-05-10T18:09:25;6.35;;;3.40;;
21941;SDS011;11135;54.192;15.670;2023-05-10T18:12:32;9.50;;;4.03;;
21941;SDS011;11135;54.192;15.670;2023-05-10T18:15:47;7.72;;;4.20;;
21941;SDS011;11135;54.192;15.670;2023-05-10T18:18:59;6.35;;;4.10;;
21941;SDS011;11135;54.192;15.670;2023-05-10T18:22:05;4.85;;;3.38;;
21941;SDS011;11135;54.192;15.670;2023-05-10T18:25:13;10.57;;;4.10;;
21941;SDS011;11135;54.192;15.670;2023-05-10T18:28:21;7.28;;;4.18;;
21941;SDS011;11135;54.192;15.670;2023-05-10T18:31:27;6.35;;;4.13;;
21941;SDS011;11135;54.192;15.670;2023-05-10T18:34:38;10.90;;;4.75;;
21941;SDS011;11135;54.192;15.670;2023-05-10T18:37:47;7.38;;;4.43;;
21941;SDS011;11135;54.192;15.670;2023-05-10T18:40:53;8.63;;;4.95;;
21941;SDS011;11135;54.192;15.670;2023-05-10T18:44:01;9.07;;;4.78;;
21941;SDS011;11135;54.192;15.670;2023-05-10T18:47:07;10.18;;;5.15;;
21941;SDS011;11135;54.192;15.670;2023-05-10T18:50:16;10.48;;;5.35;;